Time;durP1;ratioP1;P1;durP2;ratioP2;P2;SDS_P1;SDS_P2;PMS_P1;PMS_P2;Temp;Humidity;BMP_temperature;BMP_pressure;BME280_temperature;BME280_humidity;BME280_pressure;Samples;Min_cycle;Max_cycle;Signal;HPM_P1;HPM_P2
2023/12/13 00:01:26;;;;;;;7.90;6.70;;;;;;;;;;84543;239;3027929;-39
2023/12/13 00:04:03;;;;;;;7.60;6.30;;;;;;;;;;84515;238;3028112;-39
2023/12/13 00:06:41;;;;;;;8.00;6.70;;;;;;;;;;84517;242;3031193;-39
2023/12/13 00:09:16;;;;;;;7.50;6.50;;;;;;;;;;84609;238;3031519;-39
2023/12/13 00:11:53;;;;;;;7.90;6.50;;;;;;;;;;84622;235;3029127;-38
2023/12/13 00:14:29;;;;;;;7.90;6.60;;;;;;;;;;84652;235;3027734;-39
2023/12/13 00:17:08;;;;;;;7.90;6.40;;;;;;;;;;84592;238;3031470;-38
2023/12/13 00:19:45;;;;;;;8.30;6.90;;;;;;;;;;84657;238;3031161;-37
2023/12/13 00:22:23;;;;;;;8.30;6.70;;;;;;;;;;84588;235;3029647;-40
2023/12/13 00:25:04;;;;;;;8.00;6.70;;;;;;;;;;84619;242;3027668;-39
2023/12/13 00:27:41;;;;;;;8.20;6.70;;;;;;;;;;84577;242;3030918;-39
2023/12/13 00:30:18;;;;;;;8.30;6.70;;;;;;;;;;84617;235;3032323;-38
2023/12/13 00:32:54;;;;;;;8.20;6.60;;;;;;;;;;84611;238;3028657;-39
2023/12/13 00:35:30;;;;;;;8.30;6.80;;;;;;;;;;84611;238;3027615;-38
2023/12/13 00:38:06;;;;;;;8.30;6.70;;;;;;;;;;84590;238;3030783;-39
2023/12/13 00:40:43;;;;;;;8.00;6.60;;;;;;;;;;84604;238;3033374;-38
2023/12/13 00:43:19;;;;;;;7.80;6.50;;;;;;;;;;84557;235;3028389;-38
2023/12/13 00:46:07;;;;;;;8.00;6.40;;;;;;;;;;84547;242;3027441;-39
2023/12/13 00:48:46;;;;;;;7.80;6.50;;;;;;;;;;84640;235;3036552;-39
2023/12/13 00:51:24;;;;;;;7.90;6.70;;;;;;;;;;84455;242;3031719;-39
2023/12/13 00:54:03;;;;;;;8.10;6.60;;;;;;;;;;84589;238;3028276;-38
2023/12/13 00:56:39;;;;;;;8.50;7.00;;;;;;;;;;84567;242;3028256;-39
2023/12/13 00:59:17;;;;;;;8.70;6.90;;;;;;;;;;84588;238;3038507;-38
2023/12/13 01:01:54;;;;;;;7.80;6.40;;;;;;;;;;84572;238;3031912;-37
2023/12/13 01:04:33;;;;;;;7.90;6.70;;;;;;;;;;84552;238;3028810;-39
2023/12/13 01:07:10;;;;;;;7.40;6.30;;;;;;;;;;84561;238;3028245;-38
2023/12/13 01:09:46;;;;;;;7.70;6.80;;;;;;;;;;84527;235;3030460;-38
2023/12/13 01:12:24;;;;;;;7.60;6.40;;;;;;;;;;84619;238;3031607;-38
2023/12/13 01:15:03;;;;;;;8.10;6.60;;;;;;;;;;84604;238;3028771;-38
2023/12/13 01:17:39;;;;;;;8.50;6.90;;;;;;;;;;84575;238;3027959;-38
2023/12/13 01:20:17;;;;;;;8.00;6.70;;;;;;;;;;84636;238;3030405;-39
2023/12/13 01:22:54;;;;;;;7.80;6.80;;;;;;;;;;84611;238;3031844;-39
2023/12/13 01:25:30;;;;;;;8.90;7.30;;;;;;;;;;84642;238;3029050;-38
2023/12/13 01:28:07;;;;;;;8.00;6.60;;;;;;;;;;84540;238;3028403;-39
2023/12/13 01:30:44;;;;;;;8.80;7.30;;;;;;;;;;84581;238;3030761;-38
2023/12/13 01:33:20;;;;;;;8.40;7.00;;;;;;;;;;84603;238;3031403;-38
2023/12/13 01:35:56;;;;;;;8.70;7.30;;;;;;;;;;84593;238;3028147;-40
2023/12/13 01:38:35;;;;;;;8.50;7.10;;;;;;;;;;84545;238;3027270;-39
2023/12/13 01:41:11;;;;;;;7.90;6.70;;;;;;;;;;84585;238;3030733;-39
2023/12/13 01:43:49;;;;;;;8.30;7.10;;;;;;;;;;84582;238;3031779;-39
2023/12/13 01:46:26;;;;;;;8.40;7.20;;;;;;;;;;84627;238;3028692;-39
2023/12/13 01:49:06;;;;;;;8.30;7.10;;;;;;;;;;84567;238;3027707;-39
2023/12/13 01:51:44;;;;;;;8.50;7.30;;;;;;;;;;84646;242;3030752;-39
2023/12/13 01:54:21;;;;;;;9.10;7.30;;;;;;;;;;84597;238;3031905;-38
2023/12/13 01:57:03;;;;;;;9.20;7.00;;;;;;;;;;84582;242;3028513;-38
2023/12/13 01:59:46;;;;;;;8.60;7.30;;;;;;;;;;84538;238;3027306;-39
2023/12/13 02:02:27;;;;;;;8.70;7.20;;;;;;;;;;84590;234;3030805;-39
2023/12/13 02:05:06;;;;;;;9.00;7.40;;;;;;;;;;84530;242;3031543;-38
2023/12/13 02:07:43;;;;;;;8.70;7.20;;;;;;;;;;84518;235;3028174;-39
2023/12/13 02:10:20;;;;;;;8.30;7.10;;;;;;;;;;84434;243;3027108;-39
2023/12/13 02:12:58;;;;;;;8.10;6.80;;;;;;;;;;84487;239;3030618;-39
2023/12/13 02:15:35;;;;;;;8.50;7.30;;;;;;;;;;84493;235;3032003;-38
2023/12/13 02:18:14;;;;;;;8.70;7.40;;;;;;;;;;84535;235;3028909;-39
2023/12/13 02:20:52;;;;;;;8.90;6.90;;;;;;;;;;84493;242;3032582;-38
2023/12/13 02:23:29;;;;;;;8.10;7.30;;;;;;;;;;84525;239;3030959;-38
2023/12/13 02:26:06;;;;;;;8.60;7.20;;;;;;;;;;84506;239;3031835;-39
2023/12/13 02:28:43;;;;;;;8.70;7.30;;;;;;;;;;84522;242;3028344;-38
2023/12/13 02:31:22;;;;;;;8.30;7.20;;;;;;;;;;84549;239;3033453;-39
2023/12/13 02:33:59;;;;;;;8.30;7.20;;;;;;;;;;84493;235;3030945;-39
2023/12/13 02:36:35;;;;;;;8.20;7.30;;;;;;;;;;84494;239;3031929;-39
2023/12/13 02:39:12;;;;;;;8.70;7.30;;;;;;;;;;84455;242;3027928;-38
2023/12/13 02:41:50;;;;;;;8.60;7.20;;;;;;;;;;84452;239;3027822;-39
2023/12/13 02:44:27;;;;;;;8.80;7.40;;;;;;;;;;84478;235;3030645;-39
2023/12/13 02:47:06;;;;;;;8.00;6.70;;;;;;;;;;84492;239;3032293;-39
2023/12/13 02:49:46;;;;;;;7.80;6.60;;;;;;;;;;84452;235;3027929;-39
2023/12/13 02:52:22;;;;;;;8.20;7.00;;;;;;;;;;84486;235;3027883;-39
2023/12/13 02:54:58;;;;;;;8.10;7.20;;;;;;;;;;84532;243;3031005;-40
2023/12/13 02:57:37;;;;;;;8.60;7.30;;;;;;;;;;84524;239;3032458;-39
2023/12/13 03:00:18;;;;;;;8.20;7.00;;;;;;;;;;84490;239;3028782;-38
2023/12/13 03:02:54;;;;;;;7.50;6.60;;;;;;;;;;84575;236;3027983;-39
2023/12/13 03:05:31;;;;;;;8.40;7.20;;;;;;;;;;84607;238;3030624;-39
2023/12/13 03:08:12;;;;;;;8.30;7.20;;;;;;;;;;84591;242;3031954;-38
2023/12/13 03:10:48;;;;;;;8.00;7.00;;;;;;;;;;84508;242;3029611;-38
2023/12/13 03:13:26;;;;;;;8.30;7.00;;;;;;;;;;84568;238;3028624;-39
2023/12/13 03:16:05;;;;;;;8.10;7.00;;;;;;;;;;84621;234;3031093;-39
2023/12/13 03:18:42;;;;;;;7.70;6.90;;;;;;;;;;84626;235;3031652;-39
2023/12/13 03:21:18;;;;;;;7.90;6.70;;;;;;;;;;84579;235;3028637;-38
2023/12/13 03:23:55;;;;;;;8.10;6.90;;;;;;;;;;84619;235;3027682;-36
2023/12/13 03:26:34;;;;;;;7.80;6.50;;;;;;;;;;84444;242;3030369;-36
2023/12/13 03:29:10;;;;;;;7.90;6.60;;;;;;;;;;84602;238;3031515;-39
2023/12/13 03:31:46;;;;;;;7.90;6.50;;;;;;;;;;84577;242;3028424;-38
2023/12/13 03:34:22;;;;;;;8.70;7.00;;;;;;;;;;84630;242;3028026;-39
2023/12/13 03:37:06;;;;;;;8.10;6.40;;;;;;;;;;84588;235;3030333;-40
2023/12/13 03:39:45;;;;;;;8.70;7.00;;;;;;;;;;84596;238;3031250;-39
2023/12/13 03:42:21;;;;;;;8.00;6.60;;;;;;;;;;84586;238;3029308;-39
2023/12/13 03:44:57;;;;;;;8.40;6.90;;;;;;;;;;84549;242;3027959;-39
2023/12/13 03:47:33;;;;;;;7.90;6.60;;;;;;;;;;84571;238;3030943;-41
2023/12/13 03:50:11;;;;;;;7.70;6.30;;;;;;;;;;84591;238;3031134;-39
2023/12/13 03:52:49;;;;;;;8.40;6.70;;;;;;;;;;84568;238;3034466;-38
2023/12/13 03:55:25;;;;;;;7.20;6.30;;;;;;;;;;84621;242;3027210;-39
2023/12/13 03:58:02;;;;;;;7.80;6.70;;;;;;;;;;84587;238;3031292;-39
2023/12/13 04:00:37;;;;;;;7.90;6.60;;;;;;;;;;84635;242;3032283;-39
2023/12/13 04:03:16;;;;;;;8.00;6.70;;;;;;;;;;84622;238;3028046;-39
2023/12/13 04:05:52;;;;;;;8.10;7.00;;;;;;;;;;84588;238;3027879;-40
2023/12/13 04:08:28;;;;;;;8.00;6.90;;;;;;;;;;84594;242;3030869;-38
2023/12/13 04:11:06;;;;;;;8.50;6.80;;;;;;;;;;84565;238;3031965;-40
2023/12/13 04:13:44;;;;;;;7.80;6.60;;;;;;;;;;84627;235;3028436;-39
2023/12/13 04:16:20;;;;;;;7.90;6.50;;;;;;;;;;84619;238;3028022;-39
2023/12/13 04:18:58;;;;;;;7.90;6.60;;;;;;;;;;84601;242;3030517;-39
2023/12/13 04:21:34;;;;;;;8.10;6.50;;;;;;;;;;84588;238;3032848;-38
2023/12/13 04:24:11;;;;;;;8.70;6.70;;;;;;;;;;84565;235;3028313;-39
2023/12/13 04:26:48;;;;;;;8.60;6.70;;;;;;;;;;84612;238;3027138;-38
2023/12/13 04:29:24;;;;;;;7.80;6.50;;;;;;;;;;84550;238;3031334;-38
2023/12/13 04:32:00;;;;;;;8.20;6.80;;;;;;;;;;84502;238;3031382;-38
2023/12/13 04:34:37;;;;;;;8.30;6.70;;;;;;;;;;84556;238;3028860;-38
2023/12/13 04:37:13;;;;;;;7.70;6.20;;;;;;;;;;84591;238;3027716;-39
2023/12/13 04:39:51;;;;;;;8.80;6.40;;;;;;;;;;84575;235;3030541;-39
2023/12/13 04:42:29;;;;;;;8.50;6.50;;;;;;;;;;84551;242;3032715;-40
2023/12/13 04:45:11;;;;;;;8.80;6.70;;;;;;;;;;84602;242;3028456;-39
2023/12/13 04:47:47;;;;;;;7.60;6.30;;;;;;;;;;84597;242;3027684;-39
2023/12/13 04:50:23;;;;;;;8.20;6.10;;;;;;;;;;84644;235;3030903;-40
2023/12/13 04:52:59;;;;;;;8.10;6.40;;;;;;;;;;84566;238;3031605;-39
2023/12/13 04:55:36;;;;;;;9.10;6.90;;;;;;;;;;84615;242;3028538;-38
2023/12/13 04:58:12;;;;;;;8.20;6.70;;;;;;;;;;84610;242;3028205;-39
2023/12/13 05:00:52;;;;;;;8.00;6.40;;;;;;;;;;84610;235;3031210;-38
2023/12/13 05:03:29;;;;;;;8.00;6.50;;;;;;;;;;84611;238;3031235;-38
2023/12/13 05:06:06;;;;;;;8.30;6.40;;;;;;;;;;84606;238;3028954;-39
2023/12/13 05:08:42;;;;;;;8.40;6.60;;;;;;;;;;84609;238;3027455;-39
2023/12/13 05:11:19;;;;;;;8.20;6.90;;;;;;;;;;84548;242;3030394;-39
2023/12/13 05:13:56;;;;;;;8.80;6.90;;;;;;;;;;84527;238;3031223;-36
2023/12/13 05:16:32;;;;;;;8.40;7.00;;;;;;;;;;84548;235;3028785;-38
2023/12/13 05:19:08;;;;;;;9.10;6.70;;;;;;;;;;84564;238;3027570;-36
2023/12/13 05:21:47;;;;;;;7.80;6.60;;;;;;;;;;84551;238;3033308;-38
2023/12/13 05:24:23;;;;;;;8.70;6.60;;;;;;;;;;84539;238;3031232;-38
2023/12/13 05:26:59;;;;;;;8.20;6.50;;;;;;;;;;84559;234;3028879;-39
2023/12/13 05:29:37;;;;;;;9.20;7.00;;;;;;;;;;84588;238;3028418;-38
2023/12/13 05:32:13;;;;;;;7.90;6.80;;;;;;;;;;84480;242;3030915;-39
2023/12/13 05:34:49;;;;;;;8.00;6.50;;;;;;;;;;84586;238;3031707;-38
2023/12/13 05:37:28;;;;;;;8.20;6.80;;;;;;;;;;84630;238;3028268;-39
2023/12/13 05:40:05;;;;;;;8.40;6.90;;;;;;;;;;84614;235;3027222;-39
2023/12/13 05:42:41;;;;;;;7.50;6.60;;;;;;;;;;84648;234;3031195;-39
2023/12/13 05:45:21;;;;;;;8.70;7.10;;;;;;;;;;84439;242;3037350;-39
2023/12/13 05:47:59;;;;;;;8.80;6.90;;;;;;;;;;84509;235;3028443;-40
2023/12/13 05:50:37;;;;;;;8.70;7.00;;;;;;;;;;84536;239;3027803;-39
2023/12/13 05:53:16;;;;;;;8.70;7.30;;;;;;;;;;84481;235;3030484;-38
2023/12/13 05:55:52;;;;;;;8.60;6.90;;;;;;;;;;84512;239;3036979;-38
2023/12/13 05:58:29;;;;;;;9.00;7.20;;;;;;;;;;84564;239;3028211;-39
2023/12/13 06:01:09;;;;;;;8.60;7.40;;;;;;;;;;84526;235;3027611;-39
2023/12/13 06:03:48;;;;;;;7.90;6.90;;;;;;;;;;84438;235;3030633;-38
2023/12/13 06:06:27;;;;;;;8.70;7.40;;;;;;;;;;84502;242;3031883;-38
2023/12/13 06:09:05;;;;;;;9.30;7.30;;;;;;;;;;84549;239;3028721;-39
2023/12/13 06:11:41;;;;;;;9.30;7.70;;;;;;;;;;84506;239;3027513;-38
2023/12/13 06:14:20;;;;;;;8.90;7.70;;;;;;;;;;84639;234;3031202;-40
2023/12/13 06:16:56;;;;;;;9.80;7.40;;;;;;;;;;84686;234;3031841;-39
2023/12/13 06:19:33;;;;;;;9.40;7.70;;;;;;;;;;84627;238;3028249;-39
2023/12/13 06:22:12;;;;;;;9.40;7.70;;;;;;;;;;84662;242;3027863;-38
2023/12/13 06:24:48;;;;;;;9.20;7.80;;;;;;;;;;84627;238;3031700;-38
2023/12/13 06:27:24;;;;;;;9.20;7.70;;;;;;;;;;84704;234;3031712;-39
2023/12/13 06:30:02;;;;;;;9.70;7.80;;;;;;;;;;84765;234;3028460;-38
2023/12/13 06:32:41;;;;;;;8.90;7.50;;;;;;;;;;84663;238;3027662;-37
2023/12/13 06:35:18;;;;;;;9.20;7.60;;;;;;;;;;84581;235;3030335;-37
2023/12/13 06:37:54;;;;;;;9.40;7.80;;;;;;;;;;84578;234;3032008;-37
2023/12/13 06:40:30;;;;;;;9.30;7.60;;;;;;;;;;84594;242;3028053;-35
2023/12/13 06:43:11;;;;;;;9.50;8.10;;;;;;;;;;84637;238;3029688;-38
2023/12/13 06:45:49;;;;;;;9.30;8.00;;;;;;;;;;84531;242;3030397;-36
2023/12/13 06:48:28;;;;;;;10.60;8.10;;;;;;;;;;84609;234;3031325;-37
2023/12/13 06:51:05;;;;;;;9.40;8.00;;;;;;;;;;84572;242;3028596;-37
2023/12/13 06:53:41;;;;;;;10.30;8.10;;;;;;;;;;84610;242;3028381;-37
2023/12/13 06:56:17;;;;;;;9.60;8.00;;;;;;;;;;84557;242;3031508;-37
2023/12/13 06:58:53;;;;;;;10.70;8.20;;;;;;;;;;84161;242;3032133;-38
2023/12/13 07:01:31;;;;;;;9.90;7.90;;;;;;;;;;84543;238;3030648;-37
2023/12/13 07:04:09;;;;;;;9.40;8.00;;;;;;;;;;84591;238;3028178;-37
2023/12/13 07:06:46;;;;;;;10.30;7.90;;;;;;;;;;84638;234;3031269;-38
2023/12/13 07:09:22;;;;;;;9.00;7.70;;;;;;;;;;84697;242;3031488;-37
2023/12/13 07:12:00;;;;;;;9.90;8.00;;;;;;;;;;84708;238;3028834;-37
2023/12/13 07:14:36;;;;;;;9.90;8.10;;;;;;;;;;84707;234;3027882;-38
2023/12/13 07:17:13;;;;;;;10.00;8.00;;;;;;;;;;84612;242;3031382;-36
2023/12/13 07:19:50;;;;;;;9.70;8.10;;;;;;;;;;84640;242;3031775;-37
2023/12/13 07:22:26;;;;;;;9.60;8.10;;;;;;;;;;84636;234;3030573;-36
2023/12/13 07:25:12;;;;;;;10.10;8.10;;;;;;;;;;84632;242;3027529;-37
2023/12/13 07:27:50;;;;;;;11.10;8.60;;;;;;;;;;84716;238;3037752;-37
2023/12/13 07:30:27;;;;;;;10.30;8.50;;;;;;;;;;84697;242;3031579;-37
2023/12/13 07:33:03;;;;;;;10.40;8.50;;;;;;;;;;84672;242;3029195;-37
2023/12/13 07:35:45;;;;;;;10.80;8.50;;;;;;;;;;84672;238;3027242;-35
2023/12/13 07:38:21;;;;;;;11.60;8.80;;;;;;;;;;84691;234;3036568;-37
2023/12/13 07:40:59;;;;;;;12.40;9.10;;;;;;;;;;84711;242;3032404;-37
2023/12/13 07:43:39;;;;;;;11.60;8.70;;;;;;;;;;84672;238;3029318;-37
2023/12/13 07:46:16;;;;;;;12.50;8.60;;;;;;;;;;84641;234;3027243;-37
2023/12/13 07:48:54;;;;;;;11.80;9.00;;;;;;;;;;84687;238;3030285;-37
2023/12/13 07:51:33;;;;;;;11.60;8.90;;;;;;;;;;84688;238;3031274;-38
2023/12/13 07:54:13;;;;;;;11.90;8.70;;;;;;;;;;84637;242;3029585;-37
2023/12/13 07:56:50;;;;;;;11.50;9.30;;;;;;;;;;84615;242;3027891;-36
2023/12/13 07:59:27;;;;;;;11.10;9.20;;;;;;;;;;84676;238;3030465;-38
2023/12/13 08:02:05;;;;;;;11.60;9.20;;;;;;;;;;84647;238;3032479;-36
2023/12/13 08:04:42;;;;;;;11.50;8.70;;;;;;;;;;84670;242;3028753;-38
2023/12/13 08:07:21;;;;;;;11.70;9.20;;;;;;;;;;84698;242;3027205;-37
2023/12/13 08:09:59;;;;;;;11.80;9.10;;;;;;;;;;84660;238;3031516;-36
2023/12/13 08:12:37;;;;;;;11.50;9.30;;;;;;;;;;84709;238;3032058;-37
2023/12/13 08:15:14;;;;;;;11.20;9.40;;;;;;;;;;84705;234;3028095;-38
2023/12/13 08:17:55;;;;;;;11.50;9.00;;;;;;;;;;84629;242;3027847;-37
2023/12/13 08:20:32;;;;;;;10.90;9.20;;;;;;;;;;84651;234;3031256;-36
2023/12/13 08:23:10;;;;;;;11.00;9.20;;;;;;;;;;84681;238;3031716;-37
2023/12/13 08:25:47;;;;;;;12.40;9.30;;;;;;;;;;84676;234;3027935;-37
2023/12/13 08:28:23;;;;;;;10.80;8.90;;;;;;;;;;84619;238;3027594;-37
2023/12/13 08:31:00;;;;;;;11.60;9.50;;;;;;;;;;84661;242;3031170;-37
2023/12/13 08:34:02;;;;;;;12.40;9.40;;;;;;;;;;84652;238;3031773;-45
2023/12/13 08:36:41;;;;;;;11.60;9.30;;;;;;;;;;84179;240;3028154;-38
2023/12/13 08:39:17;;;;;;;12.50;9.80;;;;;;;;;;84320;244;3027854;-39
2023/12/13 08:41:53;;;;;;;11.70;9.20;;;;;;;;;;84378;237;3032088;-40
2023/12/13 08:44:30;;;;;;;12.20;9.30;;;;;;;;;;84369;237;3031340;-42
2023/12/13 08:47:08;;;;;;;11.30;9.20;;;;;;;;;;84372;244;3028046;-40
2023/12/13 08:49:46;;;;;;;12.30;9.80;;;;;;;;;;84384;240;3027207;-42
2023/12/13 08:52:22;;;;;;;11.30;9.10;;;;;;;;;;84420;237;3030880;-42
2023/12/13 08:54:59;;;;;;;12.60;9.70;;;;;;;;;;84411;241;3032035;-42
2023/12/13 08:57:35;;;;;;;12.80;9.50;;;;;;;;;;84426;244;3027966;-39
2023/12/13 09:00:15;;;;;;;11.90;9.70;;;;;;;;;;84449;240;3027869;-40
2023/12/13 09:02:53;;;;;;;10.90;9.20;;;;;;;;;;84392;240;3032488;-39
2023/12/13 09:05:30;;;;;;;10.80;9.30;;;;;;;;;;84398;240;3032040;-38
2023/12/13 09:08:08;;;;;;;12.20;10.10;;;;;;;;;;84358;240;3028628;-39
2023/12/13 09:10:47;;;;;;;12.40;10.00;;;;;;;;;;84293;241;3027392;-39
2023/12/13 09:13:27;;;;;;;12.60;10.30;;;;;;;;;;84271;237;3030691;-37
2023/12/13 09:16:05;;;;;;;12.70;10.60;;;;;;;;;;84366;241;3031472;-38
2023/12/13 09:18:47;;;;;;;12.10;9.90;;;;;;;;;;84421;236;3028812;-38
2023/12/13 09:21:24;;;;;;;13.10;10.30;;;;;;;;;;84402;244;3028652;-39
2023/12/13 09:24:02;;;;;;;12.40;10.70;;;;;;;;;;84354;242;3031255;-40
2023/12/13 09:26:39;;;;;;;12.80;10.70;;;;;;;;;;84433;240;3031714;-37
2023/12/13 09:29:15;;;;;;;12.20;10.30;;;;;;;;;;84365;240;3027986;-38
2023/12/13 09:32:00;;;;;;;12.00;10.40;;;;;;;;;;84463;240;3027358;-38
2023/12/13 09:34:42;;;;;;;13.40;11.40;;;;;;;;;;84421;240;3030650;-38
2023/12/13 09:37:25;;;;;;;12.00;10.40;;;;;;;;;;84331;244;3031455;-40
2023/12/13 09:40:04;;;;;;;12.90;10.90;;;;;;;;;;84301;237;3027979;-38
2023/12/13 09:42:49;;;;;;;12.90;10.80;;;;;;;;;;84380;240;3027502;-38
2023/12/13 09:45:25;;;;;;;12.00;10.30;;;;;;;;;;84317;237;3030986;-36
2023/12/13 09:48:05;;;;;;;13.10;10.50;;;;;;;;;;84348;244;3031902;-40
2023/12/13 09:50:43;;;;;;;13.80;11.10;;;;;;;;;;84415;236;3029225;-37
2023/12/13 09:53:22;;;;;;;12.70;10.30;;;;;;;;;;84363;241;3027176;-38
2023/12/13 09:55:59;;;;;;;12.50;10.30;;;;;;;;;;84329;241;3031219;-39
2023/12/13 09:58:42;;;;;;;12.60;10.50;;;;;;;;;;84367;241;3032129;-41
2023/12/13 10:01:19;;;;;;;12.40;10.50;;;;;;;;;;84295;238;3034967;-40
2023/12/13 10:03:57;;;;;;;13.20;11.30;;;;;;;;;;84366;241;3026991;-39
2023/12/13 10:06:34;;;;;;;12.30;10.80;;;;;;;;;;84353;241;3031068;-40
2023/12/13 10:09:11;;;;;;;12.70;11.30;;;;;;;;;;84345;244;3031316;-38
2023/12/13 10:11:53;;;;;;;12.50;10.70;;;;;;;;;;84273;237;3034370;-41
2023/12/13 10:14:30;;;;;;;12.60;10.30;;;;;;;;;;84312;241;3028963;-42
2023/12/13 10:17:06;;;;;;;12.70;10.80;;;;;;;;;;84346;237;3031639;-39
2023/12/13 10:19:54;;;;;;;13.20;11.30;;;;;;;;;;84410;236;3032443;-38
2023/12/13 10:22:34;;;;;;;12.30;10.90;;;;;;;;;;84354;241;3028149;-38
2023/12/13 10:25:13;;;;;;;14.20;11.70;;;;;;;;;;84407;241;3027139;-39
2023/12/13 10:27:50;;;;;;;13.20;11.40;;;;;;;;;;84292;244;3031258;-39
2023/12/13 10:30:27;;;;;;;13.10;11.20;;;;;;;;;;84402;244;3032383;-39
2023/12/13 10:33:04;;;;;;;13.20;11.60;;;;;;;;;;84290;237;3027809;-38
2023/12/13 10:35:41;;;;;;;14.10;11.40;;;;;;;;;;84356;241;3027942;-35
2023/12/13 10:38:23;;;;;;;13.60;11.10;;;;;;;;;;84363;237;3030574;-37
2023/12/13 10:41:00;;;;;;;13.20;11.60;;;;;;;;;;84318;241;3031317;-39
2023/12/13 10:43:40;;;;;;;13.40;11.20;;;;;;;;;;84518;240;3033376;-40
2023/12/13 10:46:20;;;;;;;13.00;11.30;;;;;;;;;;84369;237;3027253;-39
2023/12/13 10:48:56;;;;;;;14.10;11.30;;;;;;;;;;84376;237;3031708;-36
2023/12/13 10:51:37;;;;;;;13.00;11.50;;;;;;;;;;84375;240;3032050;-40
2023/12/13 10:54:14;;;;;;;14.00;12.10;;;;;;;;;;84456;236;3028694;-41
2023/12/13 10:56:52;;;;;;;13.80;11.90;;;;;;;;;;84403;244;3027108;-39
2023/12/13 10:59:30;;;;;;;14.00;11.90;;;;;;;;;;84445;241;3031137;-39
2023/12/13 11:02:10;;;;;;;14.20;11.70;;;;;;;;;;84391;242;3032673;-40
2023/12/13 11:04:50;;;;;;;14.30;12.10;;;;;;;;;;84419;244;3030530;-42
2023/12/13 11:07:26;;;;;;;13.70;12.20;;;;;;;;;;84374;241;3030033;-40
2023/12/13 11:10:07;;;;;;;14.80;12.40;;;;;;;;;;84426;237;3030877;-42
2023/12/13 11:12:54;;;;;;;14.90;12.60;;;;;;;;;;84363;242;3032705;-39
2023/12/13 11:15:31;;;;;;;15.50;12.70;;;;;;;;;;84317;241;3028620;-39
2023/12/13 11:18:08;;;;;;;14.60;11.90;;;;;;;;;;84409;244;3027991;-40
2023/12/13 11:20:55;;;;;;;13.90;12.40;;;;;;;;;;84382;244;3031027;-39
2023/12/13 11:23:36;;;;;;;14.80;12.20;;;;;;;;;;84323;237;3031905;-40
2023/12/13 11:26:27;;;;;;;14.10;12.40;;;;;;;;;;84419;237;3028865;-39
2023/12/13 11:29:17;;;;;;;14.30;12.60;;;;;;;;;;84357;244;3028794;-41
2023/12/13 11:31:54;;;;;;;15.50;13.60;;;;;;;;;;84362;241;3031371;-40
2023/12/13 11:34:41;;;;;;;15.70;13.40;;;;;;;;;;84331;244;3031240;-37
2023/12/13 11:37:27;;;;;;;15.80;14.00;;;;;;;;;;84370;237;3028499;-38
2023/12/13 11:40:06;;;;;;;16.90;13.70;;;;;;;;;;84426;241;3027964;-38
2023/12/13 11:42:45;;;;;;;16.20;14.20;;;;;;;;;;84333;237;3031133;-39
2023/12/13 11:45:24;;;;;;;16.40;14.50;;;;;;;;;;84431;244;3031891;-40
2023/12/13 11:48:05;;;;;;;15.40;13.70;;;;;;;;;;84333;244;3029614;-40
2023/12/13 11:50:44;;;;;;;16.50;14.00;;;;;;;;;;84364;244;3027473;-38
2023/12/13 11:53:22;;;;;;;16.20;13.30;;;;;;;;;;84341;242;3030695;-41
2023/12/13 11:56:12;;;;;;;14.80;13.10;;;;;;;;;;84405;241;3031374;-40
2023/12/13 11:58:50;;;;;;;15.60;13.70;;;;;;;;;;84342;238;3028826;-42
2023/12/13 12:01:29;;;;;;;16.10;14.20;;;;;;;;;;84358;242;3027713;-41
2023/12/13 12:04:07;;;;;;;17.20;14.40;;;;;;;;;;84309;241;3031026;-41
2023/12/13 12:06:55;;;;;;;15.20;13.60;;;;;;;;;;84309;245;3031809;-41
2023/12/13 12:09:37;;;;;;;15.30;13.30;;;;;;;;;;84374;241;3029326;-40
2023/12/13 12:12:16;;;;;;;14.90;13.10;;;;;;;;;;84378;237;3027923;-39
2023/12/13 12:14:58;;;;;;;15.70;13.70;;;;;;;;;;84335;240;3031052;-40
2023/12/13 12:17:42;;;;;;;16.40;13.60;;;;;;;;;;84350;241;3032248;-40
2023/12/13 12:20:24;;;;;;;14.60;12.80;;;;;;;;;;84363;241;3028273;-42
2023/12/13 12:23:06;;;;;;;15.40;13.50;;;;;;;;;;84357;243;3027881;-41
2023/12/13 12:25:50;;;;;;;15.10;13.50;;;;;;;;;;84423;240;3036366;-39
2023/12/13 12:28:27;;;;;;;15.50;13.50;;;;;;;;;;84314;241;3031975;-40
2023/12/13 12:31:08;;;;;;;14.90;12.60;;;;;;;;;;84289;242;3028523;-39
2023/12/13 12:33:55;;;;;;;15.50;13.60;;;;;;;;;;84302;237;3027413;-39
2023/12/13 12:36:36;;;;;;;14.60;12.80;;;;;;;;;;84304;245;3031050;-40
2023/12/13 12:39:17;;;;;;;15.20;13.10;;;;;;;;;;84267;245;3031575;-40
2023/12/13 12:42:03;;;;;;;15.90;14.00;;;;;;;;;;84319;240;3028019;-40
2023/12/13 12:44:42;;;;;;;14.90;13.30;;;;;;;;;;84290;241;3028129;-40
2023/12/13 12:47:21;;;;;;;16.30;13.40;;;;;;;;;;84341;240;3031288;-39
2023/12/13 12:50:05;;;;;;;15.10;13.20;;;;;;;;;;84345;241;3031686;-39
2023/12/13 12:52:45;;;;;;;15.20;13.00;;;;;;;;;;84342;238;3028817;-40
2023/12/13 12:55:24;;;;;;;14.70;12.80;;;;;;;;;;84279;238;3028133;-39
2023/12/13 12:58:04;;;;;;;15.20;12.80;;;;;;;;;;84314;245;3031526;-39
2023/12/13 13:00:47;;;;;;;14.80;13.10;;;;;;;;;;84290;242;3031612;-40
2023/12/13 13:03:27;;;;;;;15.10;13.30;;;;;;;;;;84329;240;3028410;-40
2023/12/13 13:06:05;;;;;;;14.70;12.80;;;;;;;;;;84299;242;3027285;-42
2023/12/13 13:08:44;;;;;;;14.30;12.70;;;;;;;;;;84261;241;3031021;-39
2023/12/13 13:11:26;;;;;;;14.50;12.90;;;;;;;;;;84300;238;3031949;-39
2023/12/13 13:14:06;;;;;;;15.70;12.90;;;;;;;;;;84225;239;3028718;-38
2023/12/13 13:16:46;;;;;;;15.50;13.40;;;;;;;;;;84280;241;3028837;-39
2023/12/13 13:19:28;;;;;;;15.70;13.00;;;;;;;;;;84311;237;3032053;-41
2023/12/13 13:22:05;;;;;;;15.00;13.00;;;;;;;;;;84328;242;3031804;-40
2023/12/13 13:25:05;;;;;;;15.40;13.40;;;;;;;;;;84292;244;3028057;-39
2023/12/13 13:27:45;;;;;;;15.80;13.20;;;;;;;;;;84353;240;3027253;-39
2023/12/13 13:30:23;;;;;;;15.50;13.40;;;;;;;;;;84371;244;3031349;-40
2023/12/13 13:32:59;;;;;;;15.60;13.50;;;;;;;;;;84298;241;3031256;-39
2023/12/13 13:35:37;;;;;;;14.60;12.70;;;;;;;;;;84265;237;3028050;-39
2023/12/13 13:38:13;;;;;;;14.60;13.10;;;;;;;;;;84318;241;3027734;-39
2023/12/13 13:40:52;;;;;;;16.70;14.30;;;;;;;;;;84321;241;3030525;-40
2023/12/13 13:43:30;;;;;;;16.20;14.50;;;;;;;;;;84298;238;3031740;-38
2023/12/13 13:46:08;;;;;;;15.70;13.70;;;;;;;;;;84297;240;3028611;-39
2023/12/13 13:48:52;;;;;;;16.50;13.90;;;;;;;;;;84375;240;3028185;-39
2023/12/13 13:51:32;;;;;;;16.40;14.20;;;;;;;;;;84401;244;3030612;-40
2023/12/13 13:54:10;;;;;;;15.80;13.30;;;;;;;;;;84330;237;3031790;-38
2023/12/13 13:56:54;;;;;;;15.50;13.60;;;;;;;;;;84297;241;3028436;-39
2023/12/13 13:59:30;;;;;;;16.00;14.20;;;;;;;;;;84375;241;3027477;-38
2023/12/13 14:02:06;;;;;;;15.40;13.70;;;;;;;;;;84355;237;3031374;-43
2023/12/13 14:04:48;;;;;;;15.30;13.60;;;;;;;;;;84354;241;3032157;-41
2023/12/13 14:07:27;;;;;;;15.20;13.10;;;;;;;;;;84337;240;3028945;-41
2023/12/13 14:10:08;;;;;;;14.40;12.80;;;;;;;;;;84319;240;3028042;-38
2023/12/13 14:12:53;;;;;;;14.40;12.90;;;;;;;;;;84367;244;3030428;-37
2023/12/13 14:15:29;;;;;;;15.20;12.90;;;;;;;;;;84354;241;3032152;-39
2023/12/13 14:18:09;;;;;;;14.40;12.90;;;;;;;;;;84324;237;3034465;-39
2023/12/13 14:20:49;;;;;;;15.20;13.60;;;;;;;;;;84357;241;3027910;-38
2023/12/13 14:23:25;;;;;;;14.50;12.90;;;;;;;;;;84350;244;3031229;-37
2023/12/13 14:26:09;;;;;;;14.80;13.00;;;;;;;;;;84313;242;3032040;-38
2023/12/13 14:28:49;;;;;;;14.70;12.90;;;;;;;;;;84339;237;3035521;-40
2023/12/13 14:31:32;;;;;;;13.70;12.30;;;;;;;;;;84369;241;3027904;-38
2023/12/13 14:34:14;;;;;;;15.30;13.40;;;;;;;;;;84312;241;3031450;-40
2023/12/13 14:36:53;;;;;;;14.40;12.70;;;;;;;;;;84261;241;3031617;-39
2023/12/13 14:39:36;;;;;;;14.40;12.50;;;;;;;;;;84317;245;3028195;-39
2023/12/13 14:42:17;;;;;;;13.80;12.30;;;;;;;;;;84326;244;3027078;-37
2023/12/13 14:44:56;;;;;;;13.80;12.30;;;;;;;;;;84247;239;3030729;-37
2023/12/13 14:47:33;;;;;;;13.70;12.00;;;;;;;;;;84352;237;3032739;-38
2023/12/13 14:50:15;;;;;;;13.90;11.90;;;;;;;;;;84332;237;3028238;-36
2023/12/13 14:52:56;;;;;;;13.80;12.30;;;;;;;;;;84265;241;3027032;-37
2023/12/13 14:55:35;;;;;;;13.00;11.50;;;;;;;;;;84241;242;3031791;-40
2023/12/13 14:58:17;;;;;;;13.80;12.20;;;;;;;;;;83935;244;3512434;-40
2023/12/13 15:00:59;;;;;;;13.30;11.90;;;;;;;;;;84333;241;3028741;-36
2023/12/13 15:03:45;;;;;;;13.40;11.60;;;;;;;;;;84295;240;3027086;-38
2023/12/13 15:06:23;;;;;;;13.30;11.90;;;;;;;;;;84397;241;3030546;-39
2023/12/13 15:09:04;;;;;;;13.20;11.60;;;;;;;;;;84341;242;3031991;-39
2023/12/13 15:11:45;;;;;;;13.40;11.80;;;;;;;;;;84414;237;3028515;-39
2023/12/13 15:14:21;;;;;;;14.40;12.00;;;;;;;;;;84319;242;3027940;-37
2023/12/13 15:17:03;;;;;;;13.90;11.80;;;;;;;;;;84400;244;3030606;-39
2023/12/13 15:19:42;;;;;;;13.90;12.30;;;;;;;;;;84322;242;3036831;-40
2023/12/13 15:22:18;;;;;;;14.40;11.50;;;;;;;;;;84345;244;3028291;-39
2023/12/13 15:24:59;;;;;;;14.20;11.80;;;;;;;;;;84356;241;3029548;-38